sensor_id;sensor_type;location;lat;lon;timestamp;P1;durP1;ratioP1;P2;durP2;ratioP2
17570;SDS011;8903;52.220;20.978;2024-03-02T00:00:08;44.80;;;29.23;;
17570;SDS011;8903;52.220;20.978;2024-03-02T00:02:40;52.93;;;28.93;;
17570;SDS011;8903;52.220;20.978;2024-03-02T00:05:13;45.80;;;30.57;;
17570;SDS011;8903;52.220;20.978;2024-03-02T00:07:53;53.07;;;29.07;;
17570;SDS011;8903;52.220;20.978;2024-03-02T00:10:27;47.97;;;29.87;;
17570;SDS011;8903;52.220;20.978;2024-03-02T00:13:04;47.13;;;31.17;;
17570;SDS011;8903;52.220;20.978;2024-03-02T00:15:46;43.87;;;29.57;;
17570;SDS011;8903;52.220;20.978;2024-03-02T00:18:20;46.20;;;29.77;;
17570;SDS011;8903;52.220;20.978;2024-03-02T00:20:58;46.93;;;29.50;;
17570;SDS011;8903;52.220;20.978;2024-03-02T00:23:29;45.37;;;28.57;;
17570;SDS011;8903;52.220;20.978;2024-03-02T00:25:56;42.07;;;28.33;;
17570;SDS011;8903;52.220;20.978;2024-03-02T00:28:23;39.53;;;26.90;;
17570;SDS011;8903;52.220;20.978;2024-03-02T00:36:02;43.03;;;27.27;;
17570;SDS011;8903;52.220;20.978;2024-03-02T00:38:29;43.37;;;28.00;;
17570;SDS011;8903;52.220;20.978;2024-03-02T00:40:56;46.70;;;29.77;;
17570;SDS011;8903;52.220;20.978;2024-03-02T00:43:53;40.83;;;28.03;;
17570;SDS011;8903;52.220;20.978;2024-03-02T00:46:23;47.90;;;28.97;;
17570;SDS011;8903;52.220;20.978;2024-03-02T00:48:53;42.40;;;27.87;;
17570;SDS011;8903;52.220;20.978;2024-03-02T00:51:21;42.30;;;28.90;;
17570;SDS011;8903;52.220;20.978;2024-03-02T00:53:48;47.77;;;30.23;;
17570;SDS011;8903;52.220;20.978;2024-03-02T00:56:15;41.87;;;26.43;;
17570;SDS011;8903;52.220;20.978;2024-03-02T00:58:42;41.50;;;28.03;;
17570;SDS011;8903;52.220;20.978;2024-03-02T01:01:07;42.50;;;27.87;;
17570;SDS011;8903;52.220;20.978;2024-03-02T01:03:34;47.13;;;29.57;;
17570;SDS011;8903;52.220;20.978;2024-03-02T01:06:00;42.70;;;28.17;;
17570;SDS011;8903;52.220;20.978;2024-03-02T01:08:26;41.97;;;27.47;;
17570;SDS011;8903;52.220;20.978;2024-03-02T01:10:52;43.43;;;28.70;;
17570;SDS011;8903;52.220;20.978;2024-03-02T01:13:17;45.50;;;28.50;;
17570;SDS011;8903;52.220;20.978;2024-03-02T01:15:43;44.50;;;28.17;;
17570;SDS011;8903;52.220;20.978;2024-03-02T01:18:09;41.23;;;27.50;;
17570;SDS011;8903;52.220;20.978;2024-03-02T01:20:35;43.97;;;28.17;;
17570;SDS011;8903;52.220;20.978;2024-03-02T01:23:01;45.33;;;28.63;;
17570;SDS011;8903;52.220;20.978;2024-03-02T01:25:27;41.10;;;27.97;;
17570;SDS011;8903;52.220;20.978;2024-03-02T01:27:52;46.10;;;29.23;;
17570;SDS011;8903;52.220;20.978;2024-03-02T01:30:18;41.83;;;27.13;;
17570;SDS011;8903;52.220;20.978;2024-03-02T01:32:44;41.77;;;27.37;;
17570;SDS011;8903;52.220;20.978;2024-03-02T01:35:09;37.53;;;27.40;;
17570;SDS011;8903;52.220;20.978;2024-03-02T01:37:35;40.23;;;27.30;;
17570;SDS011;8903;52.220;20.978;2024-03-02T01:40:01;46.50;;;28.97;;
17570;SDS011;8903;52.220;20.978;2024-03-02T01:42:28;39.53;;;26.37;;
17570;SDS011;8903;52.220;20.978;2024-03-02T01:44:54;43.93;;;29.70;;
17570;SDS011;8903;52.220;20.978;2024-03-02T01:47:20;40.87;;;27.90;;
17570;SDS011;8903;52.220;20.978;2024-03-02T01:49:45;42.20;;;28.60;;
17570;SDS011;8903;52.220;20.978;2024-03-02T01:52:12;44.63;;;28.70;;
17570;SDS011;8903;52.220;20.978;2024-03-02T01:54:37;42.13;;;28.47;;
17570;SDS011;8903;52.220;20.978;2024-03-02T01:57:03;40.40;;;26.17;;
17570;SDS011;8903;52.220;20.978;2024-03-02T01:59:29;45.53;;;28.30;;
17570;SDS011;8903;52.220;20.978;2024-03-02T02:01:55;45.67;;;28.43;;
17570;SDS011;8903;52.220;20.978;2024-03-02T02:04:20;42.87;;;29.83;;
17570;SDS011;8903;52.220;20.978;2024-03-02T02:06:52;37.37;;;27.53;;
17570;SDS011;8903;52.220;20.978;2024-03-02T02:09:18;45.47;;;29.57;;
17570;SDS011;8903;52.220;20.978;2024-03-02T02:11:44;43.50;;;29.47;;
17570;SDS011;8903;52.220;20.978;2024-03-02T02:14:09;40.70;;;28.03;;
17570;SDS011;8903;52.220;20.978;2024-03-02T02:16:36;39.03;;;26.90;;
17570;SDS011;8903;52.220;20.978;2024-03-02T02:19:02;43.87;;;28.57;;
17570;SDS011;8903;52.220;20.978;2024-03-02T02:21:28;42.50;;;27.83;;
17570;SDS011;8903;52.220;20.978;2024-03-02T02:23:53;40.23;;;27.07;;
17570;SDS011;8903;52.220;20.978;2024-03-02T02:26:19;36.63;;;26.30;;
17570;SDS011;8903;52.220;20.978;2024-03-02T02:28:45;41.90;;;27.80;;
17570;SDS011;8903;52.220;20.978;2024-03-02T02:31:16;37.23;;;26.30;;
17570;SDS011;8903;52.220;20.978;2024-03-02T02:33:42;40.47;;;27.70;;
17570;SDS011;8903;52.220;20.978;2024-03-02T02:36:08;39.90;;;26.50;;
17570;SDS011;8903;52.220;20.978;2024-03-02T02:38:40;36.87;;;26.47;;
17570;SDS011;8903;52.220;20.978;2024-03-02T02:41:09;40.37;;;28.00;;
17570;SDS011;8903;52.220;20.978;2024-03-02T02:43:35;41.57;;;28.17;;
17570;SDS011;8903;52.220;20.978;2024-03-02T02:46:00;46.53;;;28.30;;
17570;SDS011;8903;52.220;20.978;2024-03-02T02:48:26;41.20;;;25.93;;
17570;SDS011;8903;52.220;20.978;2024-03-02T02:50:52;42.30;;;27.13;;
17570;SDS011;8903;52.220;20.978;2024-03-02T02:53:18;43.97;;;26.40;;
17570;SDS011;8903;52.220;20.978;2024-03-02T02:55:44;43.20;;;27.27;;
17570;SDS011;8903;52.220;20.978;2024-03-02T02:58:10;36.77;;;25.60;;
17570;SDS011;8903;52.220;20.978;2024-03-02T03:00:36;48.80;;;26.33;;
17570;SDS011;8903;52.220;20.978;2024-03-02T03:03:01;39.20;;;25.90;;
17570;SDS011;8903;52.220;20.978;2024-03-02T03:05:27;36.20;;;25.53;;
17570;SDS011;8903;52.220;20.978;2024-03-02T03:07:53;41.33;;;26.23;;
17570;SDS011;8903;52.220;20.978;2024-03-02T03:10:18;42.57;;;27.97;;
17570;SDS011;8903;52.220;20.978;2024-03-02T03:12:47;39.90;;;25.70;;
17570;SDS011;8903;52.220;20.978;2024-03-02T03:15:13;39.83;;;26.93;;
17570;SDS011;8903;52.220;20.978;2024-03-02T03:17:39;39.47;;;25.63;;
17570;SDS011;8903;52.220;20.978;2024-03-02T03:20:06;38.70;;;25.57;;
17570;SDS011;8903;52.220;20.978;2024-03-02T03:22:35;41.80;;;25.90;;
17570;SDS011;8903;52.220;20.978;2024-03-02T03:25:01;36.10;;;23.47;;
17570;SDS011;8903;52.220;20.978;2024-03-02T03:27:28;37.23;;;24.73;;
17570;SDS011;8903;52.220;20.978;2024-03-02T03:29:54;38.00;;;24.80;;
17570;SDS011;8903;52.220;20.978;2024-03-02T03:32:20;40.53;;;25.63;;
17570;SDS011;8903;52.220;20.978;2024-03-02T03:34:46;36.23;;;25.37;;
17570;SDS011;8903;52.220;20.978;2024-03-02T03:37:13;38.27;;;25.50;;
17570;SDS011;8903;52.220;20.978;2024-03-02T03:39:40;39.70;;;24.70;;
17570;SDS011;8903;52.220;20.978;2024-03-02T03:42:06;36.00;;;24.93;;
17570;SDS011;8903;52.220;20.978;2024-03-02T03:44:32;39.27;;;25.57;;
17570;SDS011;8903;52.220;20.978;2024-03-02T03:46:58;38.47;;;25.20;;
17570;SDS011;8903;52.220;20.978;2024-03-02T03:49:26;38.63;;;25.80;;
17570;SDS011;8903;52.220;20.978;2024-03-02T03:51:52;36.43;;;24.50;;
17570;SDS011;8903;52.220;20.978;2024-03-02T03:54:18;36.97;;;25.20;;
17570;SDS011;8903;52.220;20.978;2024-03-02T03:56:43;34.53;;;23.57;;
17570;SDS011;8903;52.220;20.978;2024-03-02T03:59:09;36.83;;;26.13;;
17570;SDS011;8903;52.220;20.978;2024-03-02T04:01:35;39.70;;;27.20;;
17570;SDS011;8903;52.220;20.978;2024-03-02T04:04:00;38.77;;;24.70;;
17570;SDS011;8903;52.220;20.978;2024-03-02T04:06:29;38.53;;;24.10;;
17570;SDS011;8903;52.220;20.978;2024-03-02T04:08:55;41.27;;;26.20;;
17570;SDS011;8903;52.220;20.978;2024-03-02T04:11:21;37.30;;;24.73;;
17570;SDS011;8903;52.220;20.978;2024-03-02T04:13:47;42.53;;;26.70;;
17570;SDS011;8903;52.220;20.978;2024-03-02T04:16:12;39.57;;;25.50;;
17570;SDS011;8903;52.220;20.978;2024-03-02T04:18:41;36.97;;;26.03;;
17570;SDS011;8903;52.220;20.978;2024-03-02T04:21:09;37.67;;;24.23;;
17570;SDS011;8903;52.220;20.978;2024-03-02T04:23:36;36.43;;;25.23;;
17570;SDS011;8903;52.220;20.978;2024-03-02T04:26:02;41.03;;;25.30;;
17570;SDS011;8903;52.220;20.978;2024-03-02T04:28:28;39.63;;;26.40;;
17570;SDS011;8903;52.220;20.978;2024-03-02T04:30:53;41.53;;;26.20;;
17570;SDS011;8903;52.220;20.978;2024-03-02T04:33:19;38.97;;;24.40;;
17570;SDS011;8903;52.220;20.978;2024-03-02T04:35:48;42.33;;;25.70;;
17570;SDS011;8903;52.220;20.978;2024-03-02T04:38:14;40.40;;;25.70;;
17570;SDS011;8903;52.220;20.978;2024-03-02T04:40:40;39.80;;;26.80;;
17570;SDS011;8903;52.220;20.978;2024-03-02T04:43:06;41.63;;;26.03;;
17570;SDS011;8903;52.220;20.978;2024-03-02T04:45:34;38.03;;;24.03;;
17570;SDS011;8903;52.220;20.978;2024-03-02T04:48:00;39.30;;;25.80;;
17570;SDS011;8903;52.220;20.978;2024-03-02T04:50:25;37.17;;;25.20;;
17570;SDS011;8903;52.220;20.978;2024-03-02T04:52:52;38.33;;;24.80;;
17570;SDS011;8903;52.220;20.978;2024-03-02T04:55:18;36.57;;;24.33;;
17570;SDS011;8903;52.220;20.978;2024-03-02T04:57:43;41.60;;;25.80;;
17570;SDS011;8903;52.220;20.978;2024-03-02T05:00:09;37.77;;;25.30;;
17570;SDS011;8903;52.220;20.978;2024-03-02T05:02:39;37.83;;;24.53;;
17570;SDS011;8903;52.220;20.978;2024-03-02T05:05:04;44.17;;;26.40;;
17570;SDS011;8903;52.220;20.978;2024-03-02T05:07:30;44.07;;;26.27;;
17570;SDS011;8903;52.220;20.978;2024-03-02T05:09:59;41.30;;;25.30;;
17570;SDS011;8903;52.220;20.978;2024-03-02T05:12:24;36.20;;;25.47;;
17570;SDS011;8903;52.220;20.978;2024-03-02T05:15:12;36.93;;;25.57;;
17570;SDS011;8903;52.220;20.978;2024-03-02T05:17:40;38.93;;;24.40;;
17570;SDS011;8903;52.220;20.978;2024-03-02T05:20:08;41.80;;;25.70;;
17570;SDS011;8903;52.220;20.978;2024-03-02T05:22:34;38.37;;;24.53;;
17570;SDS011;8903;52.220;20.978;2024-03-02T05:25:00;38.10;;;26.37;;
17570;SDS011;8903;52.220;20.978;2024-03-02T05:27:27;37.83;;;25.23;;
17570;SDS011;8903;52.220;20.978;2024-03-02T05:29:53;38.57;;;23.07;;
17570;SDS011;8903;52.220;20.978;2024-03-02T05:32:18;38.63;;;24.67;;
17570;SDS011;8903;52.220;20.978;2024-03-02T05:34:44;34.57;;;24.13;;
17570;SDS011;8903;52.220;20.978;2024-03-02T05:37:10;40.33;;;24.20;;
17570;SDS011;8903;52.220;20.978;2024-03-02T05:39:36;38.83;;;23.70;;
17570;SDS011;8903;52.220;20.978;2024-03-02T05:42:02;42.63;;;23.60;;
17570;SDS011;8903;52.220;20.978;2024-03-02T05:44:28;37.40;;;24.27;;
17570;SDS011;8903;52.220;20.978;2024-03-02T05:46:54;36.60;;;24.20;;
17570;SDS011;8903;52.220;20.978;2024-03-02T05:49:20;38.00;;;23.57;;
17570;SDS011;8903;52.220;20.978;2024-03-02T05:51:45;35.33;;;22.43;;
17570;SDS011;8903;52.220;20.978;2024-03-02T05:54:11;38.63;;;23.87;;
17570;SDS011;8903;52.220;20.978;2024-03-02T05:56:37;39.80;;;23.37;;
17570;SDS011;8903;52.220;20.978;2024-03-02T05:59:03;40.43;;;25.37;;
17570;SDS011;8903;52.220;20.978;2024-03-02T06:01:38;37.40;;;23.00;;
17570;SDS011;8903;52.220;20.978;2024-03-02T06:04:08;36.73;;;24.67;;
17570;SDS011;8903;52.220;20.978;2024-03-02T06:06:34;38.13;;;23.20;;
17570;SDS011;8903;52.220;20.978;2024-03-02T06:09:00;42.30;;;24.90;;
17570;SDS011;8903;52.220;20.978;2024-03-02T06:11:30;38.10;;;24.40;;
17570;SDS011;8903;52.220;20.978;2024-03-02T06:13:56;37.73;;;25.10;;
17570;SDS011;8903;52.220;20.978;2024-03-02T06:16:22;38.60;;;24.20;;
17570;SDS011;8903;52.220;20.978;2024-03-02T06:18:48;41.27;;;23.67;;
17570;SDS011;8903;52.220;20.978;2024-03-02T06:21:13;38.17;;;23.10;;
17570;SDS011;8903;52.220;20.978;2024-03-02T06:23:39;38.07;;;23.83;;
17570;SDS011;8903;52.220;20.978;2024-03-02T06:26:05;41.70;;;24.40;;
17570;SDS011;8903;52.220;20.978;2024-03-02T06:28:37;36.33;;;21.67;;
17570;SDS011;8903;52.220;20.978;2024-03-02T06:31:03;33.97;;;22.27;;
17570;SDS011;8903;52.220;20.978;2024-03-02T06:33:29;41.70;;;23.53;;
17570;SDS011;8903;52.220;20.978;2024-03-02T06:35:55;34.87;;;21.47;;
17570;SDS011;8903;52.220;20.978;2024-03-02T06:38:21;32.57;;;21.50;;
17570;SDS011;8903;52.220;20.978;2024-03-02T06:40:46;32.40;;;21.87;;
17570;SDS011;8903;52.220;20.978;2024-03-02T06:43:15;36.00;;;21.60;;
17570;SDS011;8903;52.220;20.978;2024-03-02T06:45:44;34.20;;;21.87;;
17570;SDS011;8903;52.220;20.978;2024-03-02T06:48:12;43.27;;;24.97;;
17570;SDS011;8903;52.220;20.978;2024-03-02T06:50:40;40.17;;;23.37;;
17570;SDS011;8903;52.220;20.978;2024-03-02T06:53:06;34.37;;;22.20;;
17570;SDS011;8903;52.220;20.978;2024-03-02T06:55:32;31.63;;;21.00;;
17570;SDS011;8903;52.220;20.978;2024-03-02T06:58:00;35.03;;;20.60;;
17570;SDS011;8903;52.220;20.978;2024-03-02T07:00:26;31.57;;;20.37;;
17570;SDS011;8903;52.220;20.978;2024-03-02T07:02:54;37.03;;;20.50;;
17570;SDS011;8903;52.220;20.978;2024-03-02T07:05:20;31.80;;;20.43;;
17570;SDS011;8903;52.220;20.978;2024-03-02T07:07:46;31.77;;;20.17;;
17570;SDS011;8903;52.220;20.978;2024-03-02T07:10:12;32.30;;;21.87;;
17570;SDS011;8903;52.220;20.978;2024-03-02T07:12:37;31.60;;;19.13;;
17570;SDS011;8903;52.220;20.978;2024-03-02T07:15:03;25.83;;;18.40;;
17570;SDS011;8903;52.220;20.978;2024-03-02T07:17:33;32.07;;;22.00;;
17570;SDS011;8903;52.220;20.978;2024-03-02T07:19:59;33.80;;;21.53;;
17570;SDS011;8903;52.220;20.978;2024-03-02T07:22:25;34.33;;;22.10;;
17570;SDS011;8903;52.220;20.978;2024-03-02T07:24:54;37.73;;;22.47;;
17570;SDS011;8903;52.220;20.978;2024-03-02T07:27:19;29.27;;;22.03;;
17570;SDS011;8903;52.220;20.978;2024-03-02T07:29:45;35.80;;;20.13;;
17570;SDS011;8903;52.220;20.978;2024-03-02T07:32:11;38.30;;;20.40;;
17570;SDS011;8903;52.220;20.978;2024-03-02T07:34:40;37.37;;;22.00;;
17570;SDS011;8903;52.220;20.978;2024-03-02T07:37:06;27.90;;;20.20;;
17570;SDS011;8903;52.220;20.978;2024-03-02T07:39:32;29.07;;;20.07;;
17570;SDS011;8903;52.220;20.978;2024-03-02T07:41:58;32.73;;;20.37;;
17570;SDS011;8903;52.220;20.978;2024-03-02T07:44:24;31.50;;;19.63;;
17570;SDS011;8903;52.220;20.978;2024-03-02T07:46:50;34.93;;;21.70;;
17570;SDS011;8903;52.220;20.978;2024-03-02T07:49:16;31.60;;;20.67;;
17570;SDS011;8903;52.220;20.978;2024-03-02T07:51:42;30.57;;;21.50;;
17570;SDS011;8903;52.220;20.978;2024-03-02T07:54:08;34.30;;;20.87;;
17570;SDS011;8903;52.220;20.978;2024-03-02T07:56:34;35.00;;;22.13;;
17570;SDS011;8903;52.220;20.978;2024-03-02T07:59:03;31.73;;;21.85;;
17570;SDS011;8903;52.220;20.978;2024-03-02T08:01:33;35.40;;;20.90;;
17570;SDS011;8903;52.220;20.978;2024-03-02T08:03:59;30.80;;;19.67;;
17570;SDS011;8903;52.220;20.978;2024-03-02T08:06:26;33.73;;;21.23;;
17570;SDS011;8903;52.220;20.978;2024-03-02T08:08:53;33.07;;;20.20;;
17570;SDS011;8903;52.220;20.978;2024-03-02T08:11:20;31.73;;;20.17;;
17570;SDS011;8903;52.220;20.978;2024-03-02T08:13:46;32.60;;;20.97;;
17570;SDS011;8903;52.220;20.978;2024-03-02T08:16:12;33.40;;;20.70;;
17570;SDS011;8903;52.220;20.978;2024-03-02T08:18:45;31.00;;;19.27;;
17570;SDS011;8903;52.220;20.978;2024-03-02T08:21:12;31.27;;;20.93;;
17570;SDS011;8903;52.220;20.978;2024-03-02T08:23:38;34.80;;;21.23;;
17570;SDS011;8903;52.220;20.978;2024-03-02T08:26:06;30.07;;;19.27;;
17570;SDS011;8903;52.220;20.978;2024-03-02T08:28:32;32.10;;;19.67;;
17570;SDS011;8903;52.220;20.978;2024-03-02T08:30:58;35.23;;;20.80;;
17570;SDS011;8903;52.220;20.978;2024-03-02T08:33:24;29.63;;;20.30;;
17570;SDS011;8903;52.220;20.978;2024-03-02T08:35:52;37.37;;;20.83;;
17570;SDS011;8903;52.220;20.978;2024-03-02T08:38:18;29.30;;;20.00;;
17570;SDS011;8903;52.220;20.978;2024-03-02T08:40:44;32.20;;;20.50;;
17570;SDS011;8903;52.220;20.978;2024-03-02T08:43:09;33.17;;;21.30;;
17570;SDS011;8903;52.220;20.978;2024-03-02T08:45:36;30.83;;;20.47;;
17570;SDS011;8903;52.220;20.978;2024-03-02T08:48:08;32.67;;;21.07;;
17570;SDS011;8903;52.220;20.978;2024-03-02T08:50:34;35.70;;;22.10;;
17570;SDS011;8903;52.220;20.978;2024-03-02T08:53:00;33.30;;;21.10;;
17570;SDS011;8903;52.220;20.978;2024-03-02T08:55:26;38.00;;;18.90;;
17570;SDS011;8903;52.220;20.978;2024-03-02T08:57:52;30.33;;;20.13;;
17570;SDS011;8903;52.220;20.978;2024-03-02T09:00:18;31.93;;;20.23;;
17570;SDS011;8903;52.220;20.978;2024-03-02T09:02:44;30.50;;;19.17;;
17570;SDS011;8903;52.220;20.978;2024-03-02T09:05:10;37.20;;;20.50;;
17570;SDS011;8903;52.220;20.978;2024-03-02T09:07:36;35.83;;;20.60;;
17570;SDS011;8903;52.220;20.978;2024-03-02T09:10:07;31.87;;;20.40;;
17570;SDS011;8903;52.220;20.978;2024-03-02T09:12:33;33.17;;;20.60;;
17570;SDS011;8903;52.220;20.978;2024-03-02T09:15:00;32.23;;;21.60;;
17570;SDS011;8903;52.220;20.978;2024-03-02T09:17:29;30.73;;;19.90;;
17570;SDS011;8903;52.220;20.978;2024-03-02T09:19:55;38.23;;;20.30;;
17570;SDS011;8903;52.220;20.978;2024-03-02T09:22:24;36.10;;;21.37;;
17570;SDS011;8903;52.220;20.978;2024-03-02T09:24:50;36.53;;;21.73;;
17570;SDS011;8903;52.220;20.978;2024-03-02T09:27:15;35.33;;;19.30;;
17570;SDS011;8903;52.220;20.978;2024-03-02T09:29:42;31.63;;;20.77;;
17570;SDS011;8903;52.220;20.978;2024-03-02T09:32:11;31.90;;;21.50;;
17570;SDS011;8903;52.220;20.978;2024-03-02T09:34:38;30.70;;;19.77;;
17570;SDS011;8903;52.220;20.978;2024-03-02T09:37:04;38.10;;;20.57;;
17570;SDS011;8903;52.220;20.978;2024-03-02T09:39:30;28.23;;;18.93;;
17570;SDS011;8903;52.220;20.978;2024-03-02T09:41:56;34.00;;;21.77;;
17570;SDS011;8903;52.220;20.978;2024-03-02T09:44:23;30.53;;;19.77;;
17570;SDS011;8903;52.220;20.978;2024-03-02T09:46:50;32.83;;;20.73;;
17570;SDS011;8903;52.220;20.978;2024-03-02T09:49:16;31.63;;;19.77;;
17570;SDS011;8903;52.220;20.978;2024-03-02T09:51:48;31.03;;;20.20;;
17570;SDS011;8903;52.220;20.978;2024-03-02T09:54:15;35.10;;;22.47;;
17570;SDS011;8903;52.220;20.978;2024-03-02T09:56:41;35.40;;;21.47;;
17570;SDS011;8903;52.220;20.978;2024-03-02T09:59:10;41.20;;;21.80;;
17570;SDS011;8903;52.220;20.978;2024-03-02T10:01:37;38.97;;;21.90;;
17570;SDS011;8903;52.220;20.978;2024-03-02T10:04:02;35.83;;;20.03;;
17570;SDS011;8903;52.220;20.978;2024-03-02T10:06:30;31.80;;;20.10;;
17570;SDS011;8903;52.220;20.978;2024-03-02T10:08:56;33.90;;;21.37;;
17570;SDS011;8903;52.220;20.978;2024-03-02T10:11:28;36.77;;;20.03;;
17570;SDS011;8903;52.220;20.978;2024-03-02T10:14:10;35.73;;;21.70;;
17570;SDS011;8903;52.220;20.978;2024-03-02T10:16:38;36.20;;;22.00;;
17570;SDS011;8903;52.220;20.978;2024-03-02T10:19:17;34.37;;;20.57;;
17570;SDS011;8903;52.220;20.978;2024-03-02T10:21:47;35.47;;;21.67;;
17570;SDS011;8903;52.220;20.978;2024-03-02T10:24:17;33.33;;;20.73;;
17570;SDS011;8903;52.220;20.978;2024-03-02T10:26:43;40.30;;;21.07;;
17570;SDS011;8903;52.220;20.978;2024-03-02T10:29:10;35.50;;;22.60;;
17570;SDS011;8903;52.220;20.978;2024-03-02T10:31:37;33.10;;;20.30;;
17570;SDS011;8903;52.220;20.978;2024-03-02T10:34:04;37.80;;;22.90;;
17570;SDS011;8903;52.220;20.978;2024-03-02T10:36:30;29.47;;;20.20;;
17570;SDS011;8903;52.220;20.978;2024-03-02T10:38:56;32.33;;;21.07;;
17570;SDS011;8903;52.220;20.978;2024-03-02T10:41:24;28.53;;;19.63;;
17570;SDS011;8903;52.220;20.978;2024-03-02T10:43:55;30.30;;;19.97;;
17570;SDS011;8903;52.220;20.978;2024-03-02T10:46:29;27.80;;;18.40;;
17570;SDS011;8903;52.220;20.978;2024-03-02T10:48:56;35.93;;;20.73;;
17570;SDS011;8903;52.220;20.978;2024-03-02T10:51:24;33.10;;;21.10;;
17570;SDS011;8903;52.220;20.978;2024-03-02T10:53:56;35.17;;;21.93;;
17570;SDS011;8903;52.220;20.978;2024-03-02T10:56:30;33.00;;;21.20;;
17570;SDS011;8903;52.220;20.978;2024-03-02T10:59:04;32.57;;;20.53;;
17570;SDS011;8903;52.220;20.978;2024-03-02T11:01:53;30.40;;;20.80;;
17570;SDS011;8903;52.220;20.978;2024-03-02T11:04:25;30.27;;;22.17;;
17570;SDS011;8903;52.220;20.978;2024-03-02T11:06:54;34.60;;;20.63;;
17570;SDS011;8903;52.220;20.978;2024-03-02T11:09:26;33.30;;;20.07;;
17570;SDS011;8903;52.220;20.978;2024-03-02T11:11:59;31.40;;;21.23;;
17570;SDS011;8903;52.220;20.978;2024-03-02T11:14:40;34.17;;;21.10;;
17570;SDS011;8903;52.220;20.978;2024-03-02T11:17:09;37.10;;;21.70;;
17570;SDS011;8903;52.220;20.978;2024-03-02T11:19:40;38.60;;;22.07;;
17570;SDS011;8903;52.220;20.978;2024-03-02T11:22:06;28.30;;;20.63;;
17570;SDS011;8903;52.220;20.978;2024-03-02T11:24:34;33.07;;;21.23;;
17570;SDS011;8903;52.220;20.978;2024-03-02T11:27:00;36.87;;;21.53;;
17570;SDS011;8903;52.220;20.978;2024-03-02T11:32:06;36.43;;;23.00;;
17570;SDS011;8903;52.220;20.978;2024-03-02T11:34:40;37.50;;;23.20;;
17570;SDS011;8903;52.220;20.978;2024-03-02T11:37:11;35.10;;;21.40;;
17570;SDS011;8903;52.220;20.978;2024-03-02T11:39:38;36.87;;;23.10;;
17570;SDS011;8903;52.220;20.978;2024-03-02T11:42:07;36.23;;;24.67;;
17570;SDS011;8903;52.220;20.978;2024-03-02T11:44:36;36.50;;;23.87;;
17570;SDS011;8903;52.220;20.978;2024-03-02T11:47:07;39.30;;;25.63;;
17570;SDS011;8903;52.220;20.978;2024-03-02T11:49:39;40.20;;;26.50;;
17570;SDS011;8903;52.220;20.978;2024-03-02T11:52:11;41.83;;;24.93;;
17570;SDS011;8903;52.220;20.978;2024-03-02T11:54:42;41.10;;;27.43;;
17570;SDS011;8903;52.220;20.978;2024-03-02T11:57:20;44.60;;;26.63;;
17570;SDS011;8903;52.220;20.978;2024-03-02T11:59:48;45.70;;;25.37;;
17570;SDS011;8903;52.220;20.978;2024-03-02T12:02:20;40.97;;;26.67;;
17570;SDS011;8903;52.220;20.978;2024-03-02T12:04:47;41.27;;;28.03;;
17570;SDS011;8903;52.220;20.978;2024-03-02T12:07:20;36.70;;;27.17;;
17570;SDS011;8903;52.220;20.978;2024-03-02T12:09:47;41.60;;;29.20;;
17570;SDS011;8903;52.220;20.978;2024-03-02T12:12:13;42.07;;;27.40;;
17570;SDS011;8903;52.220;20.978;2024-03-02T12:14:49;40.30;;;28.40;;
17570;SDS011;8903;52.220;20.978;2024-03-02T12:17:17;48.63;;;28.63;;
17570;SDS011;8903;52.220;20.978;2024-03-02T12:19:44;51.17;;;28.63;;
17570;SDS011;8903;52.220;20.978;2024-03-02T12:22:11;44.90;;;27.80;;
17570;SDS011;8903;52.220;20.978;2024-03-02T12:24:37;42.70;;;28.80;;
17570;SDS011;8903;52.220;20.978;2024-03-02T12:27:03;43.83;;;30.37;;
17570;SDS011;8903;52.220;20.978;2024-03-02T12:29:30;49.33;;;30.30;;
17570;SDS011;8903;52.220;20.978;2024-03-02T12:31:56;40.97;;;28.90;;
17570;SDS011;8903;52.220;20.978;2024-03-02T12:34:22;42.23;;;28.50;;
17570;SDS011;8903;52.220;20.978;2024-03-02T12:36:48;46.37;;;28.40;;
17570;SDS011;8903;52.220;20.978;2024-03-02T12:39:17;44.40;;;28.90;;
17570;SDS011;8903;52.220;20.978;2024-03-02T12:41:48;40.30;;;28.43;;
17570;SDS011;8903;52.220;20.978;2024-03-02T12:44:16;42.80;;;29.50;;
17570;SDS011;8903;52.220;20.978;2024-03-02T12:46:43;44.30;;;29.13;;
17570;SDS011;8903;52.220;20.978;2024-03-02T12:49:13;45.20;;;31.50;;
17570;SDS011;8903;52.220;20.978;2024-03-02T12:51:43;46.80;;;30.17;;
17570;SDS011;8903;52.220;20.978;2024-03-02T12:54:12;44.00;;;29.70;;
17570;SDS011;8903;52.220;20.978;2024-03-02T12:56:37;39.97;;;27.47;;
17570;SDS011;8903;52.220;20.978;2024-03-02T12:59:04;42.90;;;29.30;;
17570;SDS011;8903;52.220;20.978;2024-03-02T13:01:30;40.60;;;27.57;;
17570;SDS011;8903;52.220;20.978;2024-03-02T13:03:57;35.73;;;28.07;;
17570;SDS011;8903;52.220;20.978;2024-03-02T13:06:24;36.40;;;28.53;;
17570;SDS011;8903;52.220;20.978;2024-03-02T13:08:53;38.50;;;29.03;;
17570;SDS011;8903;52.220;20.978;2024-03-02T13:11:20;40.40;;;28.07;;
17570;SDS011;8903;52.220;20.978;2024-03-02T13:13:47;41.23;;;27.67;;
17570;SDS011;8903;52.220;20.978;2024-03-02T13:16:13;45.33;;;28.93;;
17570;SDS011;8903;52.220;20.978;2024-03-02T13:18:41;44.70;;;30.70;;
17570;SDS011;8903;52.220;20.978;2024-03-02T13:21:07;39.47;;;26.90;;
17570;SDS011;8903;52.220;20.978;2024-03-02T13:23:34;43.93;;;28.83;;
17570;SDS011;8903;52.220;20.978;2024-03-02T13:26:00;49.73;;;30.80;;
17570;SDS011;8903;52.220;20.978;2024-03-02T13:28:26;39.93;;;27.20;;
17570;SDS011;8903;52.220;20.978;2024-03-02T13:30:52;37.03;;;28.10;;
17570;SDS011;8903;52.220;20.978;2024-03-02T13:33:18;39.67;;;26.87;;
17570;SDS011;8903;52.220;20.978;2024-03-02T13:35:48;42.00;;;28.47;;
17570;SDS011;8903;52.220;20.978;2024-03-02T13:38:17;38.17;;;28.53;;
17570;SDS011;8903;52.220;20.978;2024-03-02T13:40:46;40.73;;;26.87;;
17570;SDS011;8903;52.220;20.978;2024-03-02T13:43:17;38.80;;;27.80;;
17570;SDS011;8903;52.220;20.978;2024-03-02T13:45:44;48.50;;;30.13;;
17570;SDS011;8903;52.220;20.978;2024-03-02T13:48:10;40.03;;;30.37;;
17570;SDS011;8903;52.220;20.978;2024-03-02T13:50:35;44.10;;;29.57;;
17570;SDS011;8903;52.220;20.978;2024-03-02T13:53:01;39.73;;;29.30;;
17570;SDS011;8903;52.220;20.978;2024-03-02T13:55:28;40.87;;;28.10;;
17570;SDS011;8903;52.220;20.978;2024-03-02T13:57:53;39.53;;;28.93;;
17570;SDS011;8903;52.220;20.978;2024-03-02T14:00:19;43.27;;;29.80;;
17570;SDS011;8903;52.220;20.978;2024-03-02T14:02:46;42.83;;;29.80;;
17570;SDS011;8903;52.220;20.978;2024-03-02T14:05:14;41.03;;;30.40;;
17570;SDS011;8903;52.220;20.978;2024-03-02T14:07:40;41.63;;;30.37;;
17570;SDS011;8903;52.220;20.978;2024-03-02T14:10:06;38.93;;;30.53;;
17570;SDS011;8903;52.220;20.978;2024-03-02T14:12:33;45.53;;;32.23;;
17570;SDS011;8903;52.220;20.978;2024-03-02T14:14:58;45.63;;;29.77;;
17570;SDS011;8903;52.220;20.978;2024-03-02T14:17:27;47.13;;;29.53;;
17570;SDS011;8903;52.220;20.978;2024-03-02T14:19:53;48.93;;;30.77;;
17570;SDS011;8903;52.220;20.978;2024-03-02T14:22:19;40.20;;;29.10;;
17570;SDS011;8903;52.220;20.978;2024-03-02T14:24:45;43.30;;;30.40;;
17570;SDS011;8903;52.220;20.978;2024-03-02T14:27:11;41.97;;;30.37;;
17570;SDS011;8903;52.220;20.978;2024-03-02T14:29:39;43.47;;;29.33;;